createdAt,value
2023-04-17T00:01:40.211Z,108.45
2023-04-17T00:04:10.998Z,108.36
2023-04-17T00:06:38.738Z,107.90
2023-04-17T00:09:06.118Z,108.33
2023-04-17T00:11:32.850Z,108.49
2023-04-17T00:13:59.610Z,108.62
2023-04-17T00:16:27.282Z,108.62
2023-04-17T00:18:55.585Z,108.41
2023-04-17T00:21:22.719Z,109.62
2023-04-17T00:23:49.705Z,109.55
2023-04-17T00:26:16.612Z,110.59
2023-04-17T00:28:43.424Z,110.52
2023-04-17T00:31:10.163Z,109.92
2023-04-17T00:33:36.990Z,110.52
2023-04-17T00:36:04.011Z,110.73
2023-04-17T00:38:30.731Z,111.00
2023-04-17T00:40:57.390Z,110.74
2023-04-17T00:43:24.090Z,110.55
2023-04-17T00:45:51.743Z,111.31
2023-04-17T00:48:18.736Z,111.55
2023-04-17T00:50:45.850Z,111.08
2023-04-17T00:53:13.290Z,111.68
2023-04-17T00:55:43.300Z,112.06
2023-04-17T00:58:11.439Z,112.05
2023-04-17T01:00:38.120Z,111.33
2023-04-17T01:03:05.694Z,111.83
2023-04-17T01:05:35.369Z,111.70
2023-04-17T01:08:02.159Z,111.84
2023-04-17T01:10:28.931Z,111.97
2023-04-17T01:13:07.141Z,111.72
2023-04-17T01:15:34.885Z,111.76
2023-04-17T01:18:02.408Z,112.10
2023-04-17T01:20:32.645Z,112.42
2023-04-17T01:23:00.508Z,112.24
2023-04-17T01:25:28.509Z,112.71
2023-04-17T01:27:56.335Z,112.93
2023-04-17T01:30:23.257Z,112.74
2023-04-17T01:32:50.126Z,112.86
2023-04-17T01:35:16.882Z,113.22
2023-04-17T01:37:43.680Z,113.01
2023-04-17T01:40:10.818Z,112.37
2023-04-17T01:42:37.545Z,113.65
2023-04-17T01:45:06.077Z,112.72
2023-04-17T01:47:33.044Z,112.69
2023-04-17T01:49:59.814Z,113.05
2023-04-17T01:52:26.603Z,112.55
2023-04-17T01:54:53.295Z,112.66
2023-04-17T01:57:20.030Z,112.88
2023-04-17T01:59:46.761Z,113.54
2023-04-17T02:02:13.776Z,113.30
2023-04-17T02:04:40.795Z,113.67
2023-04-17T02:07:07.761Z,113.58
2023-04-17T02:09:34.448Z,113.79
2023-04-17T02:12:01.712Z,113.65
2023-04-17T02:14:30.423Z,113.75
2023-04-17T02:16:57.516Z,113.48
2023-04-17T02:19:24.268Z,113.83
2023-04-17T02:21:51.047Z,113.17
2023-04-17T02:24:17.705Z,113.18
2023-04-17T02:26:45.112Z,113.68
2023-04-17T02:29:12.140Z,114.21
2023-04-17T02:31:41.464Z,114.45
2023-04-17T02:34:08.256Z,114.67
2023-04-17T02:36:35.473Z,114.30
2023-04-17T02:39:02.198Z,114.26
2023-04-17T02:41:28.939Z,114.25
2023-04-17T02:43:56.683Z,114.73
2023-04-17T02:46:23.403Z,114.55
2023-04-17T02:48:50.145Z,114.41
2023-04-17T02:51:16.877Z,114.67
2023-04-17T02:53:43.637Z,114.66
2023-04-17T02:56:10.425Z,115.44
2023-04-17T02:58:37.559Z,114.98
2023-04-17T03:01:04.344Z,115.06
2023-04-17T03:03:34.756Z,114.77
2023-04-17T03:06:02.154Z,114.13
2023-04-17T03:08:32.574Z,113.77
2023-04-17T03:10:59.738Z,114.19
2023-04-17T03:13:26.421Z,114.45
2023-04-17T03:15:53.274Z,113.83
2023-04-17T03:18:20.083Z,113.92
2023-04-17T03:20:46.865Z,114.51
2023-04-17T03:23:13.602Z,115.31
2023-04-17T03:25:40.525Z,115.13
2023-04-17T03:28:07.256Z,115.31
2023-04-17T03:30:34.070Z,115.22
2023-04-17T03:33:00.872Z,114.96
2023-04-17T03:35:27.917Z,114.79
2023-04-17T03:37:54.697Z,116.07
2023-04-17T03:40:21.461Z,115.83
2023-04-17T03:42:48.537Z,116.49
2023-04-17T03:45:16.856Z,117.49
2023-04-17T03:47:43.795Z,117.33
2023-04-17T03:50:10.885Z,117.57
2023-04-17T03:52:37.627Z,117.67
2023-04-17T03:55:04.943Z,117.60
2023-04-17T03:57:31.772Z,117.83
2023-04-17T03:59:58.579Z,117.73
2023-04-17T04:02:25.642Z,117.92
2023-04-17T04:04:53.590Z,118.13
2023-04-17T04:07:21.535Z,117.97
2023-04-17T04:09:48.323Z,117.54
2023-04-17T04:12:15.239Z,117.61
2023-04-17T04:14:42.269Z,118.30
2023-04-17T04:17:09.160Z,118.51
2023-04-17T04:19:36.030Z,118.87
2023-04-17T04:22:06.249Z,118.72
2023-04-17T04:24:33.993Z,118.55
2023-04-17T04:27:04.902Z,118.53
2023-04-17T04:29:32.099Z,118.41
2023-04-17T04:31:59.510Z,118.18
2023-04-17T04:34:29.680Z,118.36
2023-04-17T04:36:59.488Z,118.76
2023-04-17T04:39:26.307Z,118.99
2023-04-17T04:41:53.067Z,118.91
2023-04-17T04:44:19.975Z,118.66
2023-04-17T04:46:46.906Z,118.95
2023-04-17T04:49:13.869Z,117.64
2023-04-17T04:51:40.774Z,116.28
2023-04-17T04:54:07.488Z,115.99
2023-04-17T04:56:34.477Z,114.24
2023-04-17T04:59:01.372Z,113.32
2023-04-17T05:01:29.905Z,112.13
2023-04-17T05:03:56.910Z,110.58
2023-04-17T05:06:23.945Z,109.32
2023-04-17T05:08:51.965Z,108.60
2023-04-17T05:11:18.874Z,107.11
2023-04-17T05:13:45.892Z,106.51
2023-04-17T05:16:12.748Z,104.40
2023-04-17T05:18:39.674Z,103.67
2023-04-17T05:21:06.368Z,103.24
2023-04-17T05:23:33.186Z,102.26
2023-04-17T05:25:59.858Z,100.77
2023-04-17T05:28:27.234Z,99.99
2023-04-17T05:30:54.072Z,97.92
2023-04-17T05:33:20.926Z,96.97
2023-04-17T05:35:47.612Z,97.21
2023-04-17T05:38:14.414Z,96.63
2023-04-17T05:40:41.125Z,96.65
2023-04-17T05:43:09.283Z,95.21
2023-04-17T05:45:36.285Z,94.08
2023-04-17T05:48:03.670Z,93.87
2023-04-17T05:50:30.463Z,92.03
2023-04-17T05:52:57.395Z,92.53
2023-04-17T05:55:24.191Z,92.23
2023-04-17T05:57:51.249Z,91.85
2023-04-17T06:00:18.757Z,91.04
2023-04-17T06:02:45.942Z,90.50
2023-04-17T06:05:12.970Z,89.59
2023-04-17T06:07:40.427Z,87.86
2023-04-17T06:10:08.966Z,86.80
2023-04-17T06:12:36.478Z,86.25
2023-04-17T06:15:04.460Z,78.98
2023-04-17T06:17:31.808Z,71.37
2023-04-17T06:19:58.610Z,64.79
2023-04-17T06:22:25.597Z,67.55
2023-04-17T06:24:52.401Z,65.03
2023-04-17T06:27:19.150Z,64.63
2023-04-17T06:29:46.064Z,67.79
2023-04-17T06:32:12.720Z,70.26
2023-04-17T06:34:48.941Z,74.23
2023-04-17T06:37:25.249Z,74.43
2023-04-17T06:39:52.017Z,75.19
2023-04-17T06:42:20.567Z,74.07
2023-04-17T06:44:47.279Z,74.09
2023-04-17T06:47:14.053Z,73.70
2023-04-17T06:49:40.917Z,76.41
2023-04-17T06:52:07.705Z,74.17
2023-04-17T06:54:34.426Z,73.46
2023-04-17T06:57:01.853Z,71.74
2023-04-17T06:59:28.568Z,73.28
2023-04-17T07:01:55.430Z,77.32
2023-04-17T07:04:22.265Z,76.31
2023-04-17T07:06:48.984Z,73.92
2023-04-17T07:09:16.450Z,72.13
2023-04-17T07:11:43.251Z,71.31
2023-04-17T07:14:11.594Z,71.55
2023-04-17T07:16:39.678Z,72.48
2023-04-17T07:19:06.393Z,71.92
2023-04-17T07:21:33.117Z,70.58
2023-04-17T07:23:59.923Z,70.23
2023-04-17T07:26:26.989Z,72.51
2023-04-17T07:28:53.745Z,67.53
2023-04-17T07:31:22.099Z,67.68
2023-04-17T07:33:49.251Z,69.91
2023-04-17T07:36:16.333Z,67.56
2023-04-17T07:38:43.091Z,66.51
2023-04-17T07:41:11.785Z,65.93
2023-04-17T07:43:38.636Z,68.14
2023-04-17T07:46:05.704Z,64.67
2023-04-17T07:48:32.642Z,65.62
2023-04-17T07:51:01.397Z,64.08
2023-04-17T07:53:29.079Z,60.70
2023-04-17T07:55:56.211Z,59.35
2023-04-17T07:58:24.087Z,55.63
2023-04-17T08:00:51.988Z,55.73
2023-04-17T08:03:24.257Z,56.58
2023-04-17T08:05:54.286Z,57.40
2023-04-17T08:08:22.834Z,55.00
2023-04-17T08:10:50.108Z,57.02
2023-04-17T08:13:16.886Z,54.07
2023-04-17T08:15:43.908Z,57.55
2023-04-17T08:18:10.837Z,53.08
2023-04-17T08:20:37.661Z,54.35
2023-04-17T08:23:05.161Z,53.25
2023-04-17T08:25:32.053Z,54.88
2023-04-17T08:27:58.904Z,58.58
2023-04-17T08:30:25.788Z,57.93
2023-04-17T08:32:52.585Z,53.95
2023-04-17T08:35:19.469Z,54.45
2023-04-17T08:37:49.029Z,64.42
2023-04-17T08:40:17.159Z,56.23
2023-04-17T08:42:44.403Z,58.17
2023-04-17T08:45:12.391Z,55.34
2023-04-17T08:47:40.542Z,56.59
2023-04-17T08:50:09.770Z,53.81
2023-04-17T08:52:50.153Z,52.57
2023-04-17T08:55:21.637Z,49.04
2023-04-17T08:58:02.099Z,44.92
2023-04-17T09:00:31.621Z,47.54
2023-04-17T09:03:00.566Z,47.33
2023-04-17T09:05:36.622Z,49.25
2023-04-17T09:08:14.346Z,45.12
2023-04-17T09:10:42.423Z,44.10
2023-04-17T09:13:09.828Z,42.73
2023-04-17T09:15:36.883Z,40.18
2023-04-17T09:18:04.167Z,42.13
2023-04-17T09:20:31.159Z,41.80
2023-04-17T09:23:02.977Z,40.43
2023-04-17T09:25:30.324Z,42.39
2023-04-17T09:28:11.554Z,43.42
2023-04-17T09:30:39.380Z,41.30
2023-04-17T09:33:08.488Z,39.08
2023-04-17T09:35:40.081Z,39.34
2023-04-17T09:38:07.432Z,40.55
2023-04-17T09:40:42.074Z,40.82
2023-04-17T09:43:10.676Z,39.87
2023-04-17T09:45:40.045Z,39.94
2023-04-17T09:48:10.168Z,41.17
2023-04-17T09:50:38.637Z,40.52
2023-04-17T09:53:07.689Z,40.28
2023-04-17T09:55:36.700Z,38.19
2023-04-17T09:58:05.513Z,37.60
2023-04-17T10:00:32.441Z,37.45
2023-04-17T10:03:00.205Z,38.88
2023-04-17T10:05:29.870Z,39.77
2023-04-17T10:07:57.362Z,40.23
2023-04-17T10:10:34.095Z,38.01
2023-04-17T10:13:03.128Z,40.10
2023-04-17T10:15:31.104Z,39.81
2023-04-17T10:18:21.584Z,38.55
2023-04-17T10:20:49.700Z,39.11
2023-04-17T10:23:35.807Z,38.40
2023-04-17T10:26:28.106Z,39.53
2023-04-17T10:28:57.866Z,38.43
2023-04-17T10:32:03.888Z,39.46
2023-04-17T10:34:37.669Z,41.45
2023-04-17T10:37:05.112Z,41.40
2023-04-17T10:40:00.820Z,42.76
2023-04-17T10:42:30.163Z,43.87
2023-04-17T10:44:59.883Z,44.62
2023-04-17T10:47:36.272Z,46.28
2023-04-17T10:50:07.616Z,48.10
2023-04-17T10:52:35.461Z,51.06
2023-04-17T10:55:23.084Z,50.97
2023-04-17T10:58:02.130Z,54.28
2023-04-17T11:00:35.855Z,52.01
2023-04-17T11:03:03.939Z,48.80
2023-04-17T11:05:31.940Z,49.44
2023-04-17T11:07:59.451Z,50.75
2023-04-17T11:10:26.632Z,53.74
2023-04-17T11:12:55.874Z,53.26
2023-04-17T11:15:30.097Z,55.44
2023-04-17T11:17:58.139Z,52.49
2023-04-17T11:20:26.840Z,49.47
2023-04-17T11:22:54.020Z,52.44
2023-04-17T11:25:27.947Z,53.62
2023-04-17T11:27:59.513Z,56.22
2023-04-17T11:30:38.268Z,57.19
2023-04-17T11:33:06.814Z,60.26
2023-04-17T11:35:36.099Z,59.94
2023-04-17T11:38:17.725Z,61.44
2023-04-17T11:40:51.754Z,63.60
2023-04-17T11:43:20.660Z,62.49
2023-04-17T11:45:50.913Z,62.93
2023-04-17T11:48:24.729Z,64.16
2023-04-17T11:50:55.926Z,62.54
2023-04-17T11:53:22.961Z,61.05
2023-04-17T11:56:14.282Z,56.77
2023-04-17T11:59:07.369Z,54.67
2023-04-17T12:01:34.252Z,52.26
2023-04-17T12:04:01.226Z,52.07
2023-04-17T12:06:38.169Z,49.72
2023-04-17T12:09:06.960Z,51.53
2023-04-17T12:11:34.456Z,53.88
2023-04-17T12:14:02.329Z,56.37
2023-04-17T12:16:29.720Z,53.35
2023-04-17T12:18:57.403Z,50.63
2023-04-17T12:21:24.301Z,48.37
2023-04-17T12:23:51.663Z,47.64
2023-04-17T12:26:18.551Z,45.52
2023-04-17T12:28:45.389Z,45.83
2023-04-17T12:31:12.752Z,46.41
2023-04-17T12:33:39.690Z,47.77
2023-04-17T12:36:06.955Z,45.79
2023-04-17T12:38:34.041Z,45.16
2023-04-17T12:41:01.000Z,46.93
2023-04-17T12:43:27.925Z,45.13
2023-04-17T12:45:54.843Z,47.38
2023-04-17T12:48:21.767Z,48.21
2023-04-17T12:50:48.596Z,49.61
2023-04-17T12:53:15.743Z,48.87
2023-04-17T12:55:44.334Z,49.37
2023-04-17T12:58:12.958Z,49.75
2023-04-17T13:00:43.468Z,50.67
2023-04-17T13:03:11.836Z,51.08
2023-04-17T13:05:39.407Z,50.92
2023-04-17T13:08:06.139Z,50.45
2023-04-17T13:10:34.322Z,46.93
2023-04-17T13:13:02.282Z,46.73
2023-04-17T13:15:29.038Z,46.65
2023-04-17T13:17:56.192Z,44.16
2023-04-17T13:20:23.213Z,42.20
2023-04-17T13:22:49.998Z,44.25
2023-04-17T13:25:17.020Z,44.53
2023-04-17T13:27:43.950Z,46.60
2023-04-17T13:30:11.736Z,47.76
2023-04-17T13:32:40.430Z,48.45
2023-04-17T13:35:09.642Z,51.17
2023-04-17T13:37:36.677Z,49.50
2023-04-17T13:40:05.139Z,51.23
2023-04-17T13:42:32.057Z,50.27
2023-04-17T13:44:58.745Z,50.86
2023-04-17T13:47:25.603Z,47.94
2023-04-17T13:49:52.355Z,47.60
2023-04-17T13:52:19.108Z,45.30
2023-04-17T13:54:45.864Z,45.52
2023-04-17T13:57:14.675Z,45.72
2023-04-17T13:59:41.471Z,44.46
2023-04-17T14:02:09.798Z,44.02
2023-04-17T14:04:36.740Z,44.51
2023-04-17T14:07:04.682Z,44.92
2023-04-17T14:09:31.445Z,48.03
2023-04-17T14:11:58.232Z,46.87
2023-04-17T14:14:25.084Z,46.71
2023-04-17T14:16:52.026Z,43.90
2023-04-17T14:19:19.006Z,43.60
2023-04-17T14:21:45.977Z,43.55
2023-04-17T14:24:12.864Z,45.44
2023-04-17T14:26:39.926Z,45.95
2023-04-17T14:29:06.737Z,46.42
2023-04-17T14:31:33.596Z,43.86
2023-04-17T14:34:00.782Z,42.83
2023-04-17T14:36:27.641Z,41.58
2023-04-17T14:38:54.839Z,42.03
2023-04-17T14:41:21.617Z,42.34
2023-04-17T14:43:48.440Z,44.22
2023-04-17T14:46:15.436Z,42.15
2023-04-17T14:48:54.678Z,42.77
2023-04-17T14:51:23.041Z,40.88
2023-04-17T14:53:51.270Z,41.20
2023-04-17T14:56:18.078Z,41.10
2023-04-17T14:58:45.094Z,42.33
2023-04-17T15:01:11.814Z,42.23
2023-04-17T15:03:38.901Z,41.37
2023-04-17T15:06:05.853Z,39.68
2023-04-17T15:08:32.668Z,39.53
2023-04-17T15:10:59.473Z,41.06
2023-04-17T15:13:26.336Z,41.88
2023-04-17T15:15:53.487Z,42.36
2023-04-17T15:18:20.212Z,44.88
2023-04-17T15:20:47.180Z,42.37
2023-04-17T15:23:13.956Z,42.01
2023-04-17T15:25:41.187Z,43.48
2023-04-17T15:28:07.956Z,42.92
2023-04-17T15:30:34.819Z,43.00
2023-04-17T15:33:01.601Z,44.40
2023-04-17T15:35:28.505Z,43.32
2023-04-17T15:37:55.244Z,43.52
2023-04-17T15:40:22.243Z,44.63
2023-04-17T15:42:49.080Z,45.29
2023-04-17T15:45:16.096Z,47.06
2023-04-17T15:47:43.042Z,50.36
2023-04-17T15:50:10.960Z,52.75
2023-04-17T15:52:38.595Z,55.43
2023-04-17T15:55:05.855Z,57.64
2023-04-17T15:57:32.663Z,61.04
2023-04-17T15:59:59.478Z,63.67
2023-04-17T16:02:26.349Z,64.83
2023-04-17T16:04:53.256Z,65.45
2023-04-17T16:07:20.073Z,68.09
2023-04-17T16:09:48.050Z,71.57
2023-04-17T16:12:14.981Z,71.48
2023-04-17T16:14:41.780Z,72.22
2023-04-17T16:17:08.574Z,73.12
2023-04-17T16:19:35.565Z,73.84
2023-04-17T16:22:02.425Z,74.15
2023-04-17T16:24:29.248Z,74.54
2023-04-17T16:26:58.259Z,75.14
2023-04-17T16:29:25.892Z,75.76
2023-04-17T16:31:53.975Z,77.50
2023-04-17T16:34:23.572Z,76.98
2023-04-17T16:36:50.591Z,79.08
2023-04-17T16:39:17.479Z,79.75
2023-04-17T16:41:44.297Z,79.09
2023-04-17T16:44:11.163Z,79.23
2023-04-17T16:46:55.280Z,80.01
2023-04-17T16:49:24.792Z,80.30
2023-04-17T16:51:51.744Z,80.69
2023-04-17T16:54:20.438Z,80.30
2023-04-17T16:56:48.622Z,82.75
2023-04-17T16:59:15.972Z,82.27
2023-04-17T17:01:42.840Z,83.10
2023-04-17T17:04:09.758Z,83.90
2023-04-17T17:06:36.717Z,83.61
2023-04-17T17:09:03.805Z,83.79
2023-04-17T17:11:30.749Z,84.32
2023-04-17T17:13:57.822Z,84.58
2023-04-17T17:16:25.005Z,84.30
2023-04-17T17:18:51.937Z,83.99
2023-04-17T17:21:18.886Z,85.56
2023-04-17T17:23:45.650Z,85.73
2023-04-17T17:26:12.564Z,84.54
2023-04-17T17:28:39.476Z,85.64
2023-04-17T17:31:08.187Z,84.24
2023-04-17T17:33:35.970Z,86.41
2023-04-17T17:36:03.974Z,86.95
2023-04-17T17:38:32.713Z,86.44
2023-04-17T17:40:59.886Z,89.37
2023-04-17T17:43:29.890Z,88.81
2023-04-17T17:45:56.620Z,88.35
2023-04-17T17:48:23.390Z,89.25
2023-04-17T17:50:53.635Z,89.08
2023-04-17T17:53:25.517Z,90.02
2023-04-17T17:55:57.196Z,90.68
2023-04-17T17:58:24.358Z,91.46
2023-04-17T18:00:51.243Z,91.34
2023-04-17T18:03:18.443Z,91.63
2023-04-17T18:05:46.611Z,92.04
2023-04-17T18:08:14.199Z,91.72
2023-04-17T18:10:41.096Z,92.41
2023-04-17T18:13:10.494Z,91.87
2023-04-17T18:15:39.928Z,92.37
2023-04-17T18:18:18.205Z,92.88
2023-04-17T18:20:45.445Z,92.92
2023-04-17T18:23:12.376Z,93.61
2023-04-17T18:25:39.706Z,92.50
2023-04-17T18:28:06.791Z,93.24
2023-04-17T18:30:33.667Z,93.63
2023-04-17T18:33:00.732Z,93.90
2023-04-17T18:35:30.241Z,94.17
2023-04-17T18:37:59.554Z,94.32
2023-04-17T18:40:26.318Z,94.40
2023-04-17T18:42:53.598Z,95.20
2023-04-17T18:45:20.363Z,94.74
2023-04-17T18:47:48.371Z,94.27
2023-04-17T18:50:15.469Z,94.37
2023-04-17T18:52:46.821Z,94.44
2023-04-17T18:55:17.487Z,94.91
2023-04-17T18:57:44.655Z,95.68
2023-04-17T19:00:12.186Z,95.71
2023-04-17T19:02:42.633Z,96.07
2023-04-17T19:05:10.120Z,96.21
2023-04-17T19:07:36.948Z,96.46
2023-04-17T19:10:04.511Z,97.22
2023-04-17T19:12:31.557Z,96.97
2023-04-17T19:14:58.538Z,97.37
2023-04-17T19:17:25.641Z,97.26
2023-04-17T19:19:52.563Z,97.81
2023-04-17T19:22:19.538Z,97.87
2023-04-17T19:24:49.805Z,97.33
2023-04-17T19:27:17.166Z,97.55
2023-04-17T19:29:44.256Z,97.82
2023-04-17T19:32:12.111Z,97.64
2023-04-17T19:34:39.146Z,97.78
2023-04-17T19:37:05.977Z,98.55
2023-04-17T19:39:35.464Z,98.57
2023-04-17T19:42:02.826Z,97.82
2023-04-17T19:44:29.719Z,97.68
2023-04-17T19:46:56.921Z,97.09
2023-04-17T19:49:23.678Z,97.20
2023-04-17T19:51:50.628Z,96.79
2023-04-17T19:54:17.519Z,96.83
2023-04-17T19:56:44.305Z,96.87
2023-04-17T19:59:13.228Z,97.12
2023-04-17T20:01:42.941Z,96.62
2023-04-17T20:04:10.869Z,96.23
2023-04-17T20:06:39.431Z,95.39
2023-04-17T20:09:06.784Z,95.08
2023-04-17T20:11:33.986Z,94.95
2023-04-17T20:14:00.809Z,95.56
2023-04-17T20:16:27.928Z,95.91
2023-04-17T20:18:56.815Z,96.26
2023-04-17T20:21:23.831Z,97.00
2023-04-17T20:23:50.642Z,97.04
2023-04-17T20:26:17.465Z,97.35
2023-04-17T20:28:44.431Z,97.93
2023-04-17T20:31:11.667Z,98.27
2023-04-17T20:33:38.720Z,98.26
2023-04-17T20:36:06.043Z,97.92
2023-04-17T20:38:32.994Z,97.58
2023-04-17T20:40:59.821Z,97.84
2023-04-17T20:43:26.645Z,98.09
2023-04-17T20:45:53.536Z,97.94
2023-04-17T20:48:20.481Z,97.62
2023-04-17T20:50:47.444Z,98.16
2023-04-17T20:53:14.302Z,97.93
2023-04-17T20:55:41.365Z,97.58
2023-04-17T20:58:08.288Z,97.77
2023-04-17T21:00:35.136Z,98.32
2023-04-17T21:03:02.087Z,98.55
2023-04-17T21:05:29.181Z,99.46
2023-04-17T21:07:57.712Z,98.88
2023-04-17T21:10:24.628Z,99.03
2023-04-17T21:12:51.404Z,99.37
2023-04-17T21:15:18.253Z,99.64
2023-04-17T21:17:47.646Z,99.91
2023-04-17T21:20:14.786Z,100.28
2023-04-17T21:22:41.586Z,101.42
2023-04-17T21:25:08.670Z,101.48
2023-04-17T21:27:35.718Z,102.09
2023-04-17T21:30:03.868Z,102.73
2023-04-17T21:32:30.662Z,103.91
2023-04-17T21:34:57.558Z,104.31
2023-04-17T21:37:24.338Z,105.08
2023-04-17T21:39:51.130Z,105.58
2023-04-17T21:42:17.948Z,105.94
2023-04-17T21:44:44.731Z,106.42
2023-04-17T21:47:11.532Z,106.89
2023-04-17T21:49:38.224Z,107.62
2023-04-17T21:52:04.993Z,107.94
2023-04-17T21:54:32.948Z,107.45
2023-04-17T21:56:59.629Z,107.79
2023-04-17T21:59:26.338Z,107.33
2023-04-17T22:01:53.192Z,107.90
2023-04-17T22:04:19.971Z,107.98
2023-04-17T22:06:46.954Z,108.02
2023-04-17T22:09:13.945Z,107.73
2023-04-17T22:11:40.892Z,108.16
2023-04-17T22:14:07.576Z,108.00
2023-04-17T22:16:34.447Z,107.85
2023-04-17T22:19:01.325Z,108.61
2023-04-17T22:21:28.112Z,108.48
2023-04-17T22:23:54.848Z,108.91
2023-04-17T22:26:21.860Z,110.16
2023-04-17T22:28:48.621Z,109.91
2023-04-17T22:31:15.876Z,110.64
2023-04-17T22:33:43.120Z,111.94
2023-04-17T22:36:10.089Z,111.29
2023-04-17T22:38:37.029Z,111.77
2023-04-17T22:41:04.809Z,112.11
2023-04-17T22:43:31.498Z,112.76
2023-04-17T22:45:58.325Z,113.14
2023-04-17T22:48:25.616Z,113.42
2023-04-17T22:50:52.406Z,114.16
2023-04-17T22:53:19.101Z,114.19
2023-04-17T22:55:46.163Z,114.42
2023-04-17T22:58:12.900Z,114.73
2023-04-17T23:00:39.666Z,115.02
2023-04-17T23:03:06.469Z,114.74
2023-04-17T23:05:33.442Z,115.22
2023-04-17T23:08:00.418Z,115.52
2023-04-17T23:10:27.191Z,116.04
2023-04-17T23:12:53.992Z,116.08
2023-04-17T23:15:21.064Z,115.94
2023-04-17T23:17:47.841Z,116.06
2023-04-17T23:20:14.649Z,115.89
2023-04-17T23:22:41.418Z,115.89
2023-04-17T23:25:08.801Z,116.02
2023-04-17T23:27:35.605Z,116.03
2023-04-17T23:30:02.637Z,116.20
2023-04-17T23:32:29.378Z,115.77
2023-04-17T23:34:56.296Z,115.64
2023-04-17T23:37:23.103Z,116.08
2023-04-17T23:39:49.945Z,115.60
2023-04-17T23:42:16.909Z,115.47
2023-04-17T23:44:43.866Z,115.57
2023-04-17T23:47:11.460Z,115.83
2023-04-17T23:49:38.421Z,116.74
2023-04-17T23:52:05.300Z,116.26
2023-04-17T23:54:32.142Z,116.32
2023-04-17T23:56:58.920Z,116.88
2023-04-17T23:59:25.631Z,116.63
